Teasdale, Mississippi
Current Conditions -  °F | °C
As of 12:55 PM on Friday 24 Oct 2014 (Local Time) from KCKM Reporting Station
Clear Clear  
Wind Chill: 68°   Ceiling: Unl
Heat Index: 68°   Visibility: 10mi
Dew Point: 48°   Wind: 6mph
Humidity: 49%   Direction: 310°NW
Pressure: 30.15"   Gusts: NA
Location:  34.1224°N, 90.0367°W
Report Text: KCKM 241755Z AUTO 31005KT 10SM CLR 20/09 A3015 RMK AO1
Loading
Personal Weather Stations






























Interactive Weather Map
Tropical Storm Tracking
New forecast layout! Learn more

10-Day Weather Forecast

Advertisements
Track Severe Weather on mobile